createdAt,value
2018-11-02T00:00:04.850Z,0.00
2018-11-02T00:01:04.861Z,0.00
2018-11-02T00:02:04.881Z,0.00
2018-11-02T00:03:04.894Z,0.00
2018-11-02T00:04:04.919Z,0.00
2018-11-02T00:05:04.973Z,0.00
2018-11-02T00:06:04.955Z,0.00
2018-11-02T00:07:04.971Z,0.00
2018-11-02T00:08:04.987Z,0.00
2018-11-02T00:09:05.004Z,0.00
2018-11-02T00:10:05.029Z,0.00
2018-11-02T00:11:05.052Z,0.00
2018-11-02T00:12:05.124Z,0.00
2018-11-02T00:13:05.078Z,0.00
2018-11-02T00:14:05.096Z,0.00
2018-11-02T00:15:05.113Z,0.00
2018-11-02T00:16:05.147Z,0.00
2018-11-02T00:17:05.210Z,0.00
2018-11-02T00:18:05.173Z,0.00
2018-11-02T00:19:05.182Z,0.00
2018-11-02T00:20:05.197Z,0.00
2018-11-02T00:21:05.227Z,0.00
2018-11-02T00:22:05.240Z,0.00
2018-11-02T00:23:05.260Z,0.00
2018-11-02T00:24:05.285Z,0.00
2018-11-02T00:25:05.302Z,0.00
2018-11-02T00:26:05.316Z,0.00
2018-11-02T00:27:05.337Z,0.00
2018-11-02T00:28:05.346Z,0.00
2018-11-02T00:29:05.372Z,0.00
2018-11-02T00:30:05.382Z,0.00
2018-11-02T00:31:05.407Z,0.00
2018-11-02T00:32:05.520Z,0.00
2018-11-02T00:33:05.444Z,0.00
2018-11-02T00:34:05.463Z,0.00
2018-11-02T00:35:05.528Z,0.00
2018-11-02T00:36:05.500Z,0.00
2018-11-02T00:37:05.513Z,0.00
2018-11-02T00:38:05.537Z,0.00
2018-11-02T00:39:05.554Z,0.00
2018-11-02T00:40:05.575Z,0.00
2018-11-02T00:41:05.631Z,0.00
2018-11-02T00:42:05.603Z,0.00
2018-11-02T00:43:05.618Z,0.00
2018-11-02T00:44:05.668Z,0.00
2018-11-02T00:45:05.658Z,0.00
2018-11-02T00:46:05.724Z,0.00
2018-11-02T00:47:05.692Z,0.00
2018-11-02T00:48:05.715Z,0.00
2018-11-02T00:49:05.730Z,0.00
2018-11-02T00:50:05.752Z,0.00
2018-11-02T00:51:05.781Z,0.00
2018-11-02T00:52:05.790Z,0.00
2018-11-02T00:53:05.803Z,0.00
2018-11-02T00:54:05.827Z,0.00
2018-11-02T00:55:05.838Z,0.00
2018-11-02T00:56:05.865Z,0.00
2018-11-02T00:57:05.879Z,0.00
2018-11-02T00:58:05.923Z,0.00
2018-11-02T00:59:05.915Z,0.00
2018-11-02T01:00:05.968Z,0.00
2018-11-02T01:01:05.957Z,0.00
2018-11-02T01:02:05.976Z,0.00
2018-11-02T01:03:05.999Z,0.00
2018-11-02T01:04:06.009Z,0.00
2018-11-02T01:05:06.029Z,0.00
2018-11-02T01:06:06.049Z,0.00
2018-11-02T01:07:06.063Z,0.00
2018-11-02T01:08:06.078Z,0.00
2018-11-02T01:09:06.107Z,0.00
2018-11-02T01:10:06.122Z,0.00
2018-11-02T01:11:06.141Z,0.00
2018-11-02T01:12:06.155Z,0.00
2018-11-02T01:13:06.183Z,0.00
2018-11-02T01:14:06.187Z,0.00
2018-11-02T01:15:06.215Z,0.00
2018-11-02T01:16:06.233Z,0.00
2018-11-02T01:17:06.250Z,0.00
2018-11-02T01:18:06.268Z,0.00
2018-11-02T01:19:06.281Z,0.00
2018-11-02T01:20:06.299Z,0.00
2018-11-02T01:21:06.316Z,0.00
2018-11-02T01:22:06.339Z,0.00
2018-11-02T01:23:06.387Z,0.00
2018-11-02T01:24:06.377Z,0.00
2018-11-02T01:25:06.423Z,0.00
2018-11-02T01:26:06.413Z,0.00
2018-11-02T01:27:06.434Z,0.00
2018-11-02T01:28:06.460Z,0.00
2018-11-02T01:29:06.520Z,0.00
2018-11-02T01:30:06.484Z,0.00
2018-11-02T01:31:06.504Z,0.00
2018-11-02T01:32:06.530Z,0.00
2018-11-02T01:33:06.536Z,0.00
2018-11-02T01:34:06.564Z,0.00
2018-11-02T01:35:06.582Z,0.00
2018-11-02T01:36:06.601Z,0.00
2018-11-02T01:37:06.621Z,0.00
2018-11-02T01:38:06.632Z,0.00
2018-11-02T01:39:06.653Z,0.00
2018-11-02T01:40:06.677Z,0.00
2018-11-02T01:41:06.693Z,0.00
2018-11-02T01:42:06.707Z,0.00
2018-11-02T01:43:06.733Z,0.00
2018-11-02T01:44:06.749Z,0.00
2018-11-02T01:45:06.763Z,0.00
2018-11-02T01:46:06.784Z,0.00
2018-11-02T01:47:06.798Z,0.00
2018-11-02T01:48:06.811Z,0.00
2018-11-02T01:49:06.835Z,0.00
2018-11-02T01:50:06.856Z,0.00
2018-11-02T01:51:06.875Z,0.00
2018-11-02T01:52:06.895Z,0.00
2018-11-02T01:53:06.915Z,0.00
2018-11-02T01:54:06.927Z,0.00
2018-11-02T01:55:06.944Z,0.00
2018-11-02T01:56:06.970Z,0.00
2018-11-02T01:57:06.991Z,0.00
2018-11-02T01:58:07.007Z,0.00
2018-11-02T01:59:07.019Z,0.00
2018-11-02T02:00:07.047Z,0.00
2018-11-02T02:01:07.061Z,0.00
2018-11-02T02:02:07.077Z,0.00
2018-11-02T02:03:07.096Z,0.00
2018-11-02T02:04:07.115Z,0.00
2018-11-02T02:05:07.126Z,0.00
2018-11-02T02:06:07.160Z,0.00
2018-11-02T02:07:07.168Z,0.00
2018-11-02T02:08:07.188Z,0.00
2018-11-02T02:09:07.212Z,0.00
2018-11-02T02:10:07.247Z,0.00
2018-11-02T02:11:07.244Z,0.00
2018-11-02T02:12:07.265Z,0.00
2018-11-02T02:13:07.324Z,0.00
2018-11-02T02:14:07.300Z,0.00
2018-11-02T02:15:07.314Z,0.00
2018-11-02T02:16:07.331Z,0.00
2018-11-02T02:17:07.349Z,0.00
2018-11-02T02:18:07.367Z,0.00
2018-11-02T02:19:07.388Z,0.00
2018-11-02T02:20:07.434Z,0.00
2018-11-02T02:21:07.420Z,0.00
2018-11-02T02:22:07.442Z,0.00
2018-11-02T02:23:07.460Z,0.00
2018-11-02T02:24:07.483Z,0.00
2018-11-02T02:25:07.493Z,0.00
2018-11-02T02:26:07.522Z,0.00
2018-11-02T02:27:07.529Z,0.00
2018-11-02T02:28:07.554Z,0.00
2018-11-02T02:29:07.569Z,0.00
2018-11-02T02:30:07.586Z,0.00
2018-11-02T02:31:07.611Z,0.00
2018-11-02T02:32:07.620Z,0.00
2018-11-02T02:33:07.642Z,0.00
2018-11-02T02:34:07.661Z,0.00
2018-11-02T02:35:07.683Z,0.00
2018-11-02T02:36:07.701Z,0.00
2018-11-02T02:37:07.714Z,0.00
2018-11-02T02:38:07.727Z,0.00
2018-11-02T02:39:07.750Z,0.00
2018-11-02T02:40:07.774Z,0.00
2018-11-02T02:41:07.791Z,0.00
2018-11-02T02:42:07.812Z,0.00
2018-11-02T02:43:07.824Z,0.00
2018-11-02T02:44:07.849Z,0.00
2018-11-02T02:45:07.865Z,0.00
2018-11-02T02:46:07.887Z,0.00
2018-11-02T02:47:07.978Z,0.00
2018-11-02T02:48:07.916Z,0.00
2018-11-02T02:49:07.932Z,0.00
2018-11-02T02:50:07.960Z,0.00
2018-11-02T02:51:07.976Z,0.00
2018-11-02T02:52:07.989Z,0.00
2018-11-02T02:53:08.031Z,0.00
2018-11-02T02:54:08.056Z,0.00
2018-11-02T02:55:08.049Z,0.00
2018-11-02T02:56:08.064Z,0.00
2018-11-02T02:57:08.072Z,0.00
2018-11-02T02:58:08.092Z,0.00
2018-11-02T02:59:08.119Z,0.00
2018-11-02T03:00:08.132Z,0.00
2018-11-02T03:01:08.155Z,0.00
2018-11-02T03:02:08.170Z,0.00
2018-11-02T03:03:08.188Z,0.00
2018-11-02T03:04:08.244Z,0.00
2018-11-02T03:05:08.230Z,0.00
2018-11-02T03:06:08.243Z,0.00
2018-11-02T03:07:08.267Z,0.00
2018-11-02T03:08:08.282Z,0.00
2018-11-02T03:09:08.306Z,0.00
2018-11-02T03:10:08.314Z,0.00
2018-11-02T03:11:08.524Z,0.00
2018-11-02T03:12:08.365Z,0.00
2018-11-02T03:13:08.409Z,0.00
2018-11-02T03:14:08.415Z,0.00
2018-11-02T03:15:08.403Z,0.00
2018-11-02T03:16:08.427Z,0.00
2018-11-02T03:17:08.445Z,0.00
2018-11-02T03:18:08.466Z,0.00
2018-11-02T03:19:08.502Z,0.00
2018-11-02T03:20:08.516Z,0.00
2018-11-02T03:21:08.522Z,0.00
2018-11-02T03:22:08.535Z,0.00
2018-11-02T03:23:08.562Z,0.00
2018-11-02T03:24:08.569Z,0.00
2018-11-02T03:25:08.585Z,0.00
2018-11-02T03:26:08.617Z,0.00
2018-11-02T03:27:08.632Z,0.00
2018-11-02T03:28:08.645Z,0.00
2018-11-02T03:29:08.682Z,0.00
2018-11-02T03:30:08.686Z,0.00
2018-11-02T03:31:08.700Z,0.00
2018-11-02T03:32:08.727Z,0.00
2018-11-02T03:33:08.740Z,0.00
2018-11-02T03:34:08.761Z,0.00
2018-11-02T03:35:08.814Z,0.00
2018-11-02T03:36:08.801Z,0.00
2018-11-02T03:37:08.825Z,0.00
2018-11-02T03:38:08.833Z,0.00
2018-11-02T03:39:08.845Z,0.00
2018-11-02T03:40:08.861Z,0.00
2018-11-02T03:41:08.881Z,0.00
2018-11-02T03:42:08.894Z,0.00
2018-11-02T03:43:08.939Z,0.00
2018-11-02T03:44:08.942Z,0.00
2018-11-02T03:45:08.952Z,0.00
2018-11-02T03:46:08.975Z,0.00
2018-11-02T03:47:09.081Z,0.00
2018-11-02T03:48:09.007Z,0.00
2018-11-02T03:49:09.026Z,0.00
2018-11-02T03:50:09.082Z,0.00
2018-11-02T03:51:09.063Z,0.00
2018-11-02T03:52:09.501Z,0.00
2018-11-02T03:53:09.105Z,0.00
2018-11-02T03:54:09.125Z,0.00
2018-11-02T03:55:09.137Z,0.00
2018-11-02T03:56:09.158Z,0.00
2018-11-02T03:57:09.186Z,0.00
2018-11-02T03:58:09.193Z,0.00
2018-11-02T03:59:09.223Z,0.00
2018-11-02T04:00:09.550Z,0.00
2018-11-02T04:01:09.290Z,0.00
2018-11-02T04:02:09.268Z,0.00
2018-11-02T04:03:09.288Z,0.00
2018-11-02T04:04:09.312Z,0.00
2018-11-02T04:05:09.321Z,0.00
2018-11-02T04:06:09.345Z,0.00
2018-11-02T04:07:09.361Z,0.00
2018-11-02T04:08:09.381Z,0.00
2018-11-02T04:09:09.400Z,0.00
2018-11-02T04:10:09.420Z,0.00
2018-11-02T04:11:09.434Z,0.00
2018-11-02T04:12:09.476Z,0.00
2018-11-02T04:13:09.467Z,0.00
2018-11-02T04:14:09.515Z,0.00
2018-11-02T04:15:09.505Z,0.00
2018-11-02T04:16:09.524Z,0.00
2018-11-02T04:17:09.545Z,0.00
2018-11-02T04:18:09.570Z,0.00
2018-11-02T04:19:09.570Z,0.00
2018-11-02T04:20:09.593Z,0.00
2018-11-02T04:21:09.608Z,0.00
2018-11-02T04:22:09.638Z,0.00
2018-11-02T04:23:09.647Z,0.00
2018-11-02T04:24:09.660Z,0.00
2018-11-02T04:25:09.679Z,0.00
2018-11-02T04:26:09.704Z,0.00
2018-11-02T04:27:09.721Z,0.00
2018-11-02T04:28:09.801Z,0.00
2018-11-02T04:29:09.754Z,0.00
2018-11-02T04:30:09.773Z,0.00
2018-11-02T04:31:09.921Z,0.00
2018-11-02T04:32:09.814Z,0.00
2018-11-02T04:33:09.840Z,0.00
2018-11-02T04:34:09.848Z,0.00
2018-11-02T04:35:09.867Z,0.00
2018-11-02T04:36:09.924Z,0.00
2018-11-02T04:37:09.903Z,0.00
2018-11-02T04:38:09.918Z,0.00
2018-11-02T04:39:09.945Z,0.00
2018-11-02T04:40:10.005Z,0.00
2018-11-02T04:41:09.977Z,0.00
2018-11-02T04:42:09.996Z,0.00
2018-11-02T04:43:10.017Z,0.00
2018-11-02T04:44:10.032Z,0.00
2018-11-02T04:45:10.051Z,0.00
2018-11-02T04:46:10.093Z,0.00
2018-11-02T04:47:10.122Z,0.00
2018-11-02T04:48:10.140Z,0.00
2018-11-02T04:49:10.118Z,0.00
2018-11-02T04:50:10.157Z,0.00
2018-11-02T04:51:10.168Z,0.00
2018-11-02T04:52:10.248Z,0.00
2018-11-02T04:53:10.199Z,0.00
2018-11-02T04:54:10.211Z,0.00
2018-11-02T04:55:10.249Z,0.00
2018-11-02T04:56:10.257Z,0.00
2018-11-02T04:57:10.269Z,0.00
2018-11-02T04:58:10.283Z,0.00
2018-11-02T04:59:10.296Z,0.00
2018-11-02T05:00:10.318Z,0.00
2018-11-02T05:01:10.346Z,0.00
2018-11-02T05:02:10.363Z,0.00
2018-11-02T05:03:10.378Z,0.00
2018-11-02T05:04:10.400Z,0.00
2018-11-02T05:05:10.413Z,0.00
2018-11-02T05:06:10.475Z,0.00
2018-11-02T05:07:10.451Z,0.00
2018-11-02T05:08:10.468Z,0.00
2018-11-02T05:09:10.486Z,0.00
2018-11-02T05:10:10.504Z,0.00
2018-11-02T05:11:10.600Z,0.00
2018-11-02T05:12:10.537Z,0.00
2018-11-02T05:13:10.568Z,0.00
2018-11-02T05:14:10.585Z,0.00
2018-11-02T05:15:10.594Z,0.00
2018-11-02T05:16:10.610Z,0.00
2018-11-02T05:17:10.632Z,0.00
2018-11-02T05:18:10.700Z,0.00
2018-11-02T05:19:10.666Z,0.00
2018-11-02T05:20:10.687Z,0.00
2018-11-02T05:21:10.754Z,0.00
2018-11-02T05:22:10.725Z,0.00
2018-11-02T05:23:10.752Z,0.00
2018-11-02T05:24:10.758Z,0.00
2018-11-02T05:25:10.784Z,0.00
2018-11-02T05:26:10.796Z,0.00
2018-11-02T05:27:10.814Z,0.00
2018-11-02T05:28:10.850Z,0.00
2018-11-02T05:29:10.858Z,0.00
2018-11-02T05:30:10.874Z,0.00
2018-11-02T05:31:10.892Z,0.00
2018-11-02T05:32:10.912Z,0.00
2018-11-02T05:33:10.932Z,0.00
2018-11-02T05:34:10.946Z,0.00
2018-11-02T05:35:10.967Z,0.00
2018-11-02T05:36:10.982Z,0.00
2018-11-02T05:37:11.009Z,0.00
2018-11-02T05:38:11.017Z,0.00
2018-11-02T05:39:11.037Z,0.00
2018-11-02T05:40:11.056Z,0.00
2018-11-02T05:41:11.073Z,0.00
2018-11-02T05:42:11.095Z,0.00
2018-11-02T05:43:11.117Z,0.00
2018-11-02T05:44:11.133Z,0.00
2018-11-02T05:45:11.148Z,0.00
2018-11-02T05:46:11.161Z,0.00
2018-11-02T05:47:11.225Z,0.00
2018-11-02T05:48:11.204Z,0.00
2018-11-02T05:49:11.225Z,0.00
2018-11-02T05:50:11.248Z,0.00
2018-11-02T05:51:11.255Z,0.00
2018-11-02T05:52:11.291Z,0.00
2018-11-02T05:53:11.296Z,0.00
2018-11-02T05:54:11.390Z,0.00
2018-11-02T05:55:11.336Z,0.00
2018-11-02T05:56:11.345Z,0.00
2018-11-02T05:57:11.380Z,0.00
2018-11-02T05:58:11.390Z,0.00
2018-11-02T05:59:11.405Z,0.00
2018-11-02T06:00:11.450Z,0.00
2018-11-02T06:01:11.474Z,0.00
2018-11-02T06:02:11.459Z,0.00
2018-11-02T06:03:11.547Z,0.00
2018-11-02T06:04:11.499Z,0.00
2018-11-02T06:05:11.510Z,0.00
2018-11-02T06:06:11.537Z,0.00
2018-11-02T06:07:11.550Z,0.00
2018-11-02T06:08:11.569Z,0.00
2018-11-02T06:09:11.648Z,0.00
2018-11-02T06:10:11.612Z,0.00
2018-11-02T06:11:11.618Z,0.00
2018-11-02T06:12:11.647Z,0.00
2018-11-02T06:13:11.661Z,0.00
2018-11-02T06:14:11.679Z,0.00
2018-11-02T06:15:11.703Z,0.00
2018-11-02T06:16:11.715Z,0.00
2018-11-02T06:17:11.752Z,0.00
2018-11-02T06:18:11.755Z,0.00
2018-11-02T06:19:11.775Z,0.00
2018-11-02T06:20:11.802Z,0.00
2018-11-02T06:21:11.814Z,0.00
2018-11-02T06:22:11.826Z,0.00
2018-11-02T06:23:11.847Z,0.00
2018-11-02T06:24:11.953Z,0.00
2018-11-02T06:25:11.884Z,0.00
2018-11-02T06:26:11.906Z,0.00
2018-11-02T06:27:11.922Z,0.00
2018-11-02T06:28:11.936Z,0.00
2018-11-02T06:29:11.955Z,0.00
2018-11-02T06:30:11.981Z,0.00
2018-11-02T06:31:11.992Z,0.00
2018-11-02T06:32:12.033Z,0.00
2018-11-02T06:33:12.026Z,0.00
2018-11-02T06:34:12.040Z,0.00
2018-11-02T06:35:12.059Z,4.00
2018-11-02T06:36:12.126Z,4.00
2018-11-02T06:37:12.098Z,4.00
2018-11-02T06:38:12.198Z,4.00
2018-11-02T06:39:12.130Z,4.00
2018-11-02T06:40:12.148Z,0.00
2018-11-02T06:41:12.173Z,0.00
2018-11-02T06:42:12.194Z,4.00
2018-11-02T06:43:12.208Z,4.00
2018-11-02T06:44:12.233Z,4.00
2018-11-02T06:45:12.264Z,4.00
2018-11-02T06:46:12.272Z,8.00
2018-11-02T06:47:12.292Z,4.00
2018-11-02T06:48:12.297Z,4.00
2018-11-02T06:49:12.318Z,8.00
2018-11-02T06:50:12.390Z,8.00
2018-11-02T06:51:12.354Z,8.00
2018-11-02T06:52:12.383Z,12.00
2018-11-02T06:53:12.388Z,16.00
2018-11-02T06:54:12.403Z,16.00
2018-11-02T06:55:12.424Z,20.00
2018-11-02T06:56:12.448Z,24.00
2018-11-02T06:57:12.456Z,24.00
2018-11-02T06:58:12.485Z,28.00
2018-11-02T06:59:12.576Z,28.00
2018-11-02T07:00:12.542Z,32.00
2018-11-02T07:01:12.531Z,36.00
2018-11-02T07:02:12.566Z,44.00
2018-11-02T07:03:12.577Z,48.00
2018-11-02T07:04:12.587Z,52.00
2018-11-02T07:05:12.608Z,60.00
2018-11-02T07:06:12.629Z,64.00
2018-11-02T07:07:12.689Z,68.00
2018-11-02T07:08:12.899Z,80.00
2018-11-02T07:09:12.683Z,84.00
2018-11-02T07:10:12.709Z,96.00
2018-11-02T07:11:12.721Z,104.00
2018-11-02T07:12:12.742Z,116.00
2018-11-02T07:13:12.755Z,128.00
2018-11-02T07:14:12.819Z,144.00
2018-11-02T07:15:12.793Z,156.00
2018-11-02T07:16:12.809Z,168.00
2018-11-02T07:17:12.833Z,172.00
2018-11-02T07:18:12.866Z,180.00
2018-11-02T07:19:12.863Z,184.00
2018-11-02T07:20:12.892Z,184.00
2018-11-02T07:21:12.903Z,184.00
2018-11-02T07:22:12.927Z,196.00
2018-11-02T07:23:12.949Z,200.00
2018-11-02T07:24:12.958Z,208.00
2018-11-02T07:25:13.133Z,220.00
2018-11-02T07:26:12.989Z,236.00
2018-11-02T07:27:13.008Z,252.00
2018-11-02T07:28:13.027Z,268.00
2018-11-02T07:29:13.045Z,284.00
2018-11-02T07:30:13.063Z,312.00
2018-11-02T07:31:13.087Z,336.00
2018-11-02T07:32:13.143Z,360.00
2018-11-02T07:33:13.127Z,380.00
2018-11-02T07:34:13.159Z,404.00
2018-11-02T07:35:13.160Z,412.00
2018-11-02T07:36:13.171Z,420.00
2018-11-02T07:37:13.197Z,424.00
2018-11-02T07:38:13.213Z,452.00
2018-11-02T07:39:13.228Z,476.00
2018-11-02T07:40:13.252Z,516.00
2018-11-02T07:41:13.270Z,532.00
2018-11-02T07:42:13.289Z,532.00
2018-11-02T07:43:13.304Z,532.00
2018-11-02T07:44:13.321Z,552.00
2018-11-02T07:45:13.370Z,584.00
2018-11-02T07:46:13.355Z,632.00
2018-11-02T07:47:13.373Z,1248.00
2018-11-02T07:48:13.391Z,2056.00
2018-11-02T07:49:13.417Z,2660.00
2018-11-02T07:50:13.448Z,2660.00
2018-11-02T07:51:13.446Z,2808.00
2018-11-02T07:52:13.469Z,3176.00
2018-11-02T07:53:13.486Z,3432.00
2018-11-02T07:54:13.504Z,3724.00
2018-11-02T07:55:13.527Z,3528.00
2018-11-02T07:56:13.592Z,3456.00
2018-11-02T07:57:13.566Z,3080.00
2018-11-02T07:58:13.584Z,3720.00
2018-11-02T07:59:13.598Z,3888.00
2018-11-02T08:00:13.618Z,3876.00
2018-11-02T08:01:13.634Z,4292.00
2018-11-02T08:02:13.658Z,4404.00
2018-11-02T08:03:13.670Z,4376.00
2018-11-02T08:04:13.696Z,2028.00
2018-11-02T08:05:13.725Z,1916.00
2018-11-02T08:06:13.737Z,1820.00
2018-11-02T08:07:13.760Z,1532.00
2018-11-02T08:08:13.854Z,1368.00
2018-11-02T08:09:13.793Z,1376.00
2018-11-02T08:10:13.814Z,1348.00
2018-11-02T08:11:13.902Z,1568.00
2018-11-02T08:12:13.906Z,2004.00
2018-11-02T08:13:13.874Z,1548.00
2018-11-02T08:14:13.977Z,1124.00
2018-11-02T08:15:13.915Z,760.00
2018-11-02T08:16:13.930Z,632.00
2018-11-02T08:17:13.946Z,672.00
2018-11-02T08:18:13.965Z,708.00
2018-11-02T08:19:13.986Z,660.00
2018-11-02T08:20:14.025Z,668.00
2018-11-02T08:21:14.022Z,700.00
2018-11-02T08:22:14.048Z,724.00
2018-11-02T08:23:14.063Z,696.00
2018-11-02T08:24:14.088Z,716.00
2018-11-02T08:25:14.109Z,660.00
2018-11-02T08:26:14.125Z,624.00
2018-11-02T08:27:14.144Z,588.00
2018-11-02T08:28:14.158Z,564.00
2018-11-02T08:29:14.178Z,620.00
2018-11-02T08:30:14.403Z,640.00
2018-11-02T08:31:14.217Z,608.00
2018-11-02T08:32:14.357Z,568.00
2018-11-02T08:33:14.260Z,516.00
2018-11-02T08:34:14.280Z,536.00
2018-11-02T08:35:14.292Z,620.00
2018-11-02T08:36:14.316Z,768.00
2018-11-02T08:37:14.338Z,812.00
2018-11-02T08:38:14.356Z,1012.00
2018-11-02T08:39:14.366Z,1012.00
2018-11-02T08:40:14.391Z,1076.00
2018-11-02T08:41:14.405Z,1092.00
2018-11-02T08:42:14.431Z,964.00
2018-11-02T08:43:14.447Z,896.00
2018-11-02T08:44:14.505Z,792.00
2018-11-02T08:45:14.477Z,1220.00
2018-11-02T08:46:14.536Z,1152.00
2018-11-02T08:47:14.517Z,960.00
2018-11-02T08:48:14.539Z,1116.00
2018-11-02T08:49:14.557Z,1304.00
2018-11-02T08:50:14.577Z,1552.00
2018-11-02T08:51:14.603Z,1884.00
2018-11-02T08:52:14.630Z,1352.00
2018-11-02T08:53:14.634Z,1148.00
2018-11-02T08:54:14.645Z,1128.00
2018-11-02T08:55:14.669Z,1180.00
2018-11-02T08:56:14.700Z,1124.00
2018-11-02T08:57:14.706Z,1248.00
2018-11-02T08:58:14.896Z,1636.00
2018-11-02T08:59:14.872Z,1360.00
2018-11-02T09:00:14.824Z,1284.00
2018-11-02T09:01:14.781Z,1332.00
2018-11-02T09:02:14.798Z,1240.00
2018-11-02T09:03:14.821Z,1232.00
2018-11-02T09:04:14.838Z,1156.00
2018-11-02T09:05:15.076Z,1740.00
2018-11-02T09:06:14.879Z,1676.00
2018-11-02T09:07:14.889Z,1404.00
2018-11-02T09:08:14.909Z,1416.00
2018-11-02T09:09:14.931Z,1524.00
2018-11-02T09:10:14.946Z,1316.00
2018-11-02T09:11:14.964Z,1136.00
2018-11-02T09:12:15.092Z,1184.00
2018-11-02T09:13:15.008Z,1268.00
2018-11-02T09:14:15.021Z,1200.00
2018-11-02T09:15:15.054Z,1368.00
2018-11-02T09:16:15.071Z,1316.00
2018-11-02T09:17:15.078Z,1116.00
2018-11-02T09:18:15.095Z,1224.00
2018-11-02T09:19:15.157Z,1236.00
2018-11-02T09:20:15.129Z,1324.00
2018-11-02T09:21:15.151Z,1248.00
2018-11-02T09:22:15.181Z,1308.00
2018-11-02T09:23:15.395Z,1240.00
2018-11-02T09:24:15.404Z,1256.00
2018-11-02T09:25:15.224Z,1220.00
2018-11-02T09:26:15.262Z,1096.00
2018-11-02T09:27:15.271Z,1280.00
2018-11-02T09:28:15.329Z,1776.00
2018-11-02T09:29:15.301Z,1496.00
2018-11-02T09:30:15.316Z,1364.00
2018-11-02T09:31:15.386Z,1344.00
2018-11-02T09:32:15.420Z,1884.00
2018-11-02T09:33:15.371Z,2660.00
2018-11-02T09:34:15.392Z,2144.00
2018-11-02T09:35:15.440Z,2092.00
2018-11-02T09:36:15.433Z,2292.00
2018-11-02T09:37:15.455Z,2708.00
2018-11-02T09:38:15.528Z,3064.00
2018-11-02T09:39:15.489Z,3068.00
2018-11-02T09:40:15.521Z,2568.00
2018-11-02T09:41:15.526Z,2752.00
2018-11-02T09:42:15.551Z,3456.00
2018-11-02T09:43:15.567Z,5044.00
2018-11-02T09:44:15.581Z,3596.00
2018-11-02T09:45:15.602Z,3884.00
2018-11-02T09:46:15.617Z,6280.00
2018-11-02T09:47:15.642Z,3924.00
2018-11-02T09:48:15.659Z,4408.00
2018-11-02T09:49:15.686Z,3400.00
2018-11-02T09:50:15.693Z,3380.00
2018-11-02T09:51:15.805Z,3792.00
2018-11-02T09:52:15.739Z,2728.00
2018-11-02T09:53:15.757Z,2652.00
2018-11-02T09:54:15.781Z,2900.00
2018-11-02T09:55:15.798Z,3532.00
2018-11-02T09:56:15.820Z,3072.00
2018-11-02T09:57:15.849Z,3000.00
2018-11-02T09:58:15.849Z,2532.00
2018-11-02T09:59:15.865Z,2516.00
2018-11-02T10:00:15.887Z,10944.00
2018-11-02T10:01:15.945Z,3600.00
2018-11-02T10:02:15.986Z,3172.00
2018-11-02T10:03:15.951Z,4732.00
2018-11-02T10:04:15.961Z,5188.00
2018-11-02T10:05:15.980Z,4732.00
2018-11-02T10:06:16.004Z,3708.00
2018-11-02T10:07:16.021Z,3872.00
2018-11-02T10:08:16.039Z,6312.00
2018-11-02T10:09:16.121Z,5724.00
2018-11-02T10:10:16.082Z,3744.00
2018-11-02T10:11:16.098Z,5196.00
2018-11-02T10:12:16.116Z,11756.00
2018-11-02T10:13:16.138Z,3732.00
2018-11-02T10:14:16.159Z,4776.00
2018-11-02T10:15:16.179Z,9340.00
2018-11-02T10:16:16.195Z,3096.00
2018-11-02T10:17:16.221Z,2920.00
2018-11-02T10:18:16.239Z,2856.00
2018-11-02T10:19:16.258Z,2816.00
2018-11-02T10:20:16.279Z,3352.00
2018-11-02T10:21:16.291Z,3712.00
2018-11-02T10:22:16.315Z,4696.00
2018-11-02T10:23:16.332Z,5924.00
2018-11-02T10:24:16.355Z,4812.00
2018-11-02T10:25:16.382Z,12004.00
2018-11-02T10:26:16.391Z,6228.00
2018-11-02T10:27:16.420Z,7964.00
2018-11-02T10:28:16.461Z,9396.00
2018-11-02T10:29:16.450Z,7268.00
2018-11-02T10:30:16.474Z,4136.00
2018-11-02T10:31:16.575Z,3572.00
2018-11-02T10:32:16.544Z,12148.00
2018-11-02T10:33:16.541Z,12292.00
2018-11-02T10:34:16.551Z,11264.00
2018-11-02T10:35:16.621Z,11296.00
2018-11-02T10:36:16.593Z,11000.00
2018-11-02T10:37:16.666Z,11220.00
2018-11-02T10:38:16.633Z,11340.00
2018-11-02T10:39:16.948Z,10916.00
2018-11-02T10:40:16.678Z,9128.00
2018-11-02T10:41:16.693Z,11232.00
2018-11-02T10:42:16.720Z,13476.00
2018-11-02T10:43:16.848Z,6336.00
2018-11-02T10:44:16.821Z,4684.00
2018-11-02T10:45:16.799Z,4348.00
2018-11-02T10:46:16.792Z,4296.00
2018-11-02T10:47:16.821Z,5340.00
2018-11-02T10:48:16.840Z,3652.00
2018-11-02T10:49:16.932Z,3780.00
2018-11-02T10:50:16.884Z,10244.00
2018-11-02T10:51:16.924Z,12088.00
2018-11-02T10:52:16.924Z,12372.00
2018-11-02T10:53:16.937Z,9792.00
2018-11-02T10:55:17.018Z,8300.00
2018-11-02T10:56:16.996Z,12036.00
2018-11-02T10:57:17.026Z,13356.00
2018-11-02T10:58:17.048Z,6036.00
2018-11-02T10:59:17.067Z,12080.00
2018-11-02T11:00:17.093Z,11948.00
2018-11-02T11:01:17.198Z,8876.00
2018-11-02T11:02:17.129Z,12136.00
2018-11-02T11:03:17.140Z,11992.00
2018-11-02T11:04:17.168Z,12820.00
2018-11-02T11:05:17.290Z,12220.00
2018-11-02T11:06:17.210Z,12044.00
2018-11-02T11:07:17.258Z,11424.00
2018-11-02T11:08:17.245Z,5368.00
2018-11-02T11:09:17.275Z,11880.00
2018-11-02T11:10:17.292Z,4756.00
2018-11-02T11:11:17.319Z,13152.00
2018-11-02T11:12:17.471Z,10760.00
2018-11-02T11:13:17.830Z,11760.00
2018-11-02T11:14:17.376Z,12188.00
2018-11-02T11:15:17.398Z,12420.00
2018-11-02T11:16:17.422Z,11572.00
2018-11-02T11:17:17.443Z,9440.00
2018-11-02T11:18:17.467Z,8848.00
2018-11-02T11:19:17.490Z,11472.00
2018-11-02T11:20:17.503Z,11488.00
2018-11-02T11:21:17.609Z,12464.00
2018-11-02T11:22:17.547Z,5292.00
2018-11-02T11:23:17.568Z,12328.00
2018-11-02T11:24:17.597Z,9768.00
2018-11-02T11:25:17.612Z,7340.00
2018-11-02T11:26:17.639Z,6844.00
2018-11-02T11:27:17.714Z,8260.00
2018-11-02T11:28:17.679Z,5492.00
2018-11-02T11:29:17.717Z,7856.00
2018-11-02T11:30:17.732Z,5364.00
2018-11-02T11:31:17.782Z,4828.00
2018-11-02T11:32:17.767Z,5000.00
2018-11-02T11:33:17.791Z,5480.00
2018-11-02T11:34:17.814Z,4200.00
2018-11-02T11:35:17.833Z,3400.00
2018-11-02T11:36:17.855Z,3880.00
2018-11-02T11:37:17.877Z,5220.00
2018-11-02T11:38:17.890Z,4644.00
2018-11-02T11:39:17.911Z,4148.00
2018-11-02T11:40:17.941Z,4220.00
2018-11-02T11:41:17.957Z,3608.00
2018-11-02T11:42:18.013Z,2656.00
2018-11-02T11:43:17.998Z,2556.00
2018-11-02T11:44:18.015Z,2356.00
2018-11-02T11:45:18.032Z,2796.00
2018-11-02T11:46:18.063Z,3280.00
2018-11-02T11:47:18.077Z,3892.00
2018-11-02T11:48:18.136Z,4492.00
2018-11-02T11:49:18.206Z,4696.00
2018-11-02T11:50:18.145Z,4544.00
2018-11-02T11:51:18.158Z,4924.00
2018-11-02T11:52:18.182Z,6604.00
2018-11-02T11:53:18.198Z,5148.00
2018-11-02T11:54:18.316Z,8180.00
2018-11-02T11:55:18.237Z,12512.00
2018-11-02T11:56:18.264Z,13148.00
2018-11-02T11:57:18.281Z,6532.00
2018-11-02T11:58:18.299Z,4428.00
2018-11-02T11:59:18.325Z,4624.00
2018-11-02T12:00:18.384Z,3820.00
2018-11-02T12:01:18.364Z,12680.00
2018-11-02T12:02:18.519Z,9944.00
2018-11-02T12:03:18.405Z,7380.00
2018-11-02T12:04:18.440Z,11952.00
2018-11-02T12:05:18.437Z,11840.00
2018-11-02T12:06:18.527Z,12064.00
2018-11-02T12:07:18.489Z,12016.00
2018-11-02T12:08:18.508Z,12356.00
2018-11-02T12:09:18.651Z,12948.00
2018-11-02T12:10:18.549Z,10284.00
2018-11-02T12:11:18.561Z,4816.00
2018-11-02T12:12:18.596Z,5396.00
2018-11-02T12:13:18.613Z,12444.00
2018-11-02T12:14:18.627Z,12092.00
2018-11-02T12:15:18.660Z,11904.00
2018-11-02T12:16:18.669Z,12132.00
2018-11-02T12:17:18.693Z,12544.00
2018-11-02T12:18:18.715Z,12516.00
2018-11-02T12:19:18.736Z,12212.00
2018-11-02T12:20:18.752Z,11448.00
2018-11-02T12:21:18.779Z,11608.00
2018-11-02T12:22:18.799Z,11436.00
2018-11-02T12:23:18.864Z,12320.00
2018-11-02T12:24:18.843Z,8552.00
2018-11-02T12:25:18.864Z,11792.00
2018-11-02T12:26:18.884Z,11376.00
2018-11-02T12:27:18.899Z,11776.00
2018-11-02T12:28:19.043Z,5888.00
2018-11-02T12:29:18.952Z,6848.00
2018-11-02T12:30:18.973Z,11648.00
2018-11-02T12:31:18.994Z,11200.00
2018-11-02T12:32:19.018Z,10968.00
2018-11-02T12:33:19.038Z,10732.00
2018-11-02T12:34:19.066Z,9360.00
2018-11-02T12:35:19.102Z,4744.00
2018-11-02T12:36:19.104Z,11208.00
2018-11-02T12:37:19.216Z,11632.00
2018-11-02T12:38:19.145Z,11540.00
2018-11-02T12:39:19.169Z,12216.00
2018-11-02T12:40:19.185Z,12120.00
2018-11-02T12:41:19.226Z,12496.00
2018-11-02T12:42:19.226Z,8040.00
2018-11-02T12:43:19.355Z,5364.00
2018-11-02T12:44:19.282Z,8932.00
2018-11-02T12:45:19.298Z,5648.00